Teterboro, New Jersey
Current Conditions -  °F | °C
As of 5:51 AM on Saturday 25 Oct 2014 (Local Time) from KTEB Reporting Station
Clear Clear  
Wind Chill: 50°   Ceiling: Unl
Heat Index: 50°   Visibility: 10mi
Dew Point: 35°   Wind: 6mph
Humidity: 57%   Direction: 310°NW
Pressure: 29.86"   Gusts: NA
Location:  40.86°N, 74.06°W
Report Text: KTEB 250951Z 31005KT 10SM CLR 10/02 A2986 RMK AO2 SLP112 T01000017
Loading
Personal Weather Stations






























Interactive Weather Map New forecast layout! Learn more

10-Day Weather Forecast

Advertisements
Track Severe Weather on mobile